Time;durP1;ratioP1;P1;durP2;ratioP2;P2;SDS_P1;SDS_P2;PMS_P1;PMS_P2;Temp;Humidity;BMP_temperature;BMP_pressure;BME280_temperature;BME280_humidity;BME280_pressure;Samples;Min_cycle;Max_cycle;Signal;HPM_P1;HPM_P2
2022/04/04 00:02:24;;;;;;;4.90;3.28;;;;;;;-0.38;48.12;98312.75;5008128;28;20026;-60
2022/04/04 00:04:49;;;;;;;5.25;3.58;;;;;;;-0.45;49.00;98315.31;5016313;28;20033;-60
2022/04/04 00:07:15;;;;;;;5.30;3.17;;;;;;;-0.51;49.38;98323.78;5024448;28;20028;-60
2022/04/04 00:09:41;;;;;;;5.13;3.55;;;;;;;-0.51;48.40;98313.59;5024199;28;20242;-60
2022/04/04 00:12:07;;;;;;;5.47;3.50;;;;;;;-0.53;47.04;98315.28;5024608;28;20025;-60
2022/04/04 00:14:32;;;;;;;5.53;3.30;;;;;;;-0.48;48.44;98321.22;5023347;28;20030;-60
2022/04/04 00:17:00;;;;;;;5.13;3.35;;;;;;;-0.59;46.77;98321.19;5023847;28;20218;-60
2022/04/04 00:19:26;;;;;;;5.88;3.25;;;;;;;-0.55;48.09;98322.91;5024000;28;20152;-60
2022/04/04 00:21:52;;;;;;;5.15;3.40;;;;;;;-0.72;47.18;98316.97;5024072;28;20214;-60
2022/04/04 00:24:18;;;;;;;5.38;3.40;;;;;;;-0.62;49.52;98322.91;5024030;28;20306;-60
2022/04/04 00:26:44;;;;;;;4.85;3.13;;;;;;;-0.63;49.42;98319.50;5024164;28;20056;-60
2022/04/04 00:29:09;;;;;;;4.03;3.28;;;;;;;-0.62;47.02;98312.75;5012508;28;20021;-60
2022/04/04 00:31:35;;;;;;;3.50;3.17;;;;;;;-0.60;49.73;98322.06;5034367;28;20030;-60
2022/04/04 00:34:01;;;;;;;4.68;3.10;;;;;;;-0.64;48.36;98327.13;5023852;28;20037;-60
2022/04/04 00:36:27;;;;;;;5.03;3.40;;;;;;;-0.66;47.93;98332.22;5006421;28;20029;-60
2022/04/04 00:38:52;;;;;;;5.57;3.30;;;;;;;-0.66;49.40;98327.13;5023981;28;20045;-60
2022/04/04 00:41:18;;;;;;;5.45;3.30;;;;;;;-0.61;50.64;98328.00;5023034;28;20026;-60
2022/04/04 00:43:44;;;;;;;4.28;3.28;;;;;;;-0.63;50.15;98334.75;5019242;28;20247;-59
2022/04/04 00:46:10;;;;;;;5.30;3.50;;;;;;;-0.67;48.70;98334.75;5011529;28;20088;-59
2022/04/04 00:48:36;;;;;;;9.23;3.92;;;;;;;-0.73;48.40;98333.03;5023575;28;20056;-59
2022/04/04 00:51:03;;;;;;;6.38;3.97;;;;;;;-0.74;49.44;98333.88;5023771;28;20026;-59
2022/04/04 00:53:30;;;;;;;6.07;3.90;;;;;;;-0.67;50.97;98335.63;5023613;28;20040;-59
2022/04/04 00:55:56;;;;;;;6.35;3.88;;;;;;;-0.68;48.01;98333.03;5023857;28;20045;-59
2022/04/04 00:58:22;;;;;;;5.68;3.53;;;;;;;-0.62;48.88;98338.16;5023520;28;20302;-60
2022/04/04 01:00:48;;;;;;;6.95;4.25;;;;;;;-0.62;50.27;98343.25;5023602;28;20044;-59
2022/04/04 01:03:15;;;;;;;6.15;4.30;;;;;;;-0.99;47.85;98277.09;5023324;28;20026;-59
2022/04/04 01:05:44;;;;;;;7.03;4.07;;;;;;;-0.68;47.18;98340.66;5023408;28;20029;-59
2022/04/04 01:08:13;;;;;;;8.00;4.25;;;;;;;-0.67;47.25;98344.91;5023429;28;20026;-60
2022/04/04 01:10:40;;;;;;;5.90;3.72;;;;;;;-0.63;49.20;98344.09;5023313;28;20033;-60
2022/04/04 01:13:06;;;;;;;6.30;4.05;;;;;;;-0.74;47.33;98352.53;5023391;28;20029;-60
2022/04/04 01:15:32;;;;;;;5.65;4.13;;;;;;;-0.71;47.08;98351.72;5023340;28;20121;-61
2022/04/04 01:18:05;;;;;;;4.65;3.28;;;;;;;-0.81;45.57;98352.50;5023260;28;20100;-60
2022/04/04 01:20:31;;;;;;;4.25;3.50;;;;;;;-0.85;48.21;98348.28;5023655;28;20209;-61
2022/04/04 01:22:57;;;;;;;4.35;3.60;;;;;;;-0.78;46.21;98355.91;5023174;28;20080;-61
2022/04/04 01:25:25;;;;;;;5.13;3.80;;;;;;;-0.73;47.54;98363.53;5029097;28;20035;-58
2022/04/04 01:27:51;;;;;;;5.13;3.40;;;;;;;-0.87;46.62;98355.88;5026050;28;20318;-59
2022/04/04 01:30:17;;;;;;;4.60;3.53;;;;;;;-0.77;47.26;98357.63;5005842;28;20033;-62
2022/04/04 01:32:44;;;;;;;6.50;3.30;;;;;;;-0.83;46.40;98344.03;5023279;28;20037;-59
2022/04/04 01:35:10;;;;;;;4.63;3.40;;;;;;;-0.83;45.91;98357.59;5022995;28;20259;-59
2022/04/04 01:37:36;;;;;;;4.20;3.50;;;;;;;-0.84;46.65;98357.59;5023277;28;20075;-60
2022/04/04 01:40:04;;;;;;;5.25;3.53;;;;;;;-0.90;45.78;98356.75;5023140;28;20030;-59
2022/04/04 01:42:31;;;;;;;5.38;3.58;;;;;;;-0.91;46.88;98365.19;5023147;28;20045;-60
2022/04/04 01:44:57;;;;;;;3.45;3.05;;;;;;;-0.95;46.08;98360.94;5023101;28;20333;-60
2022/04/04 01:47:23;;;;;;;4.93;3.20;;;;;;;-0.95;47.87;98349.94;5023154;28;20030;-60
2022/04/04 01:49:48;;;;;;;5.03;3.30;;;;;;;-0.86;48.89;98352.50;5022882;28;20068;-60
2022/04/04 01:52:14;;;;;;;3.58;3.17;;;;;;;-0.78;47.93;98375.41;5021025;28;20134;-59
2022/04/04 01:54:40;;;;;;;4.13;3.17;;;;;;;-0.84;47.69;98363.53;4998945;28;20038;-59
2022/04/04 01:57:06;;;;;;;4.75;3.22;;;;;;;-0.82;48.33;98359.28;5006510;28;20041;-60
2022/04/04 01:59:31;;;;;;;4.85;3.70;;;;;;;-0.81;46.60;98367.75;5021541;28;20034;-59
2022/04/04 02:01:57;;;;;;;5.43;3.60;;;;;;;-0.78;49.00;98375.41;5018889;28;20161;-58
2022/04/04 02:04:23;;;;;;;5.32;3.72;;;;;;;-0.91;46.57;98375.38;5026683;28;20037;-57
2022/04/04 02:06:49;;;;;;;4.32;3.28;;;;;;;-0.94;46.02;98377.03;5026786;28;20022;-59
2022/04/04 02:09:15;;;;;;;8.20;3.58;;;;;;;-1.07;45.78;98364.31;5026595;28;20280;-59
2022/04/04 02:11:40;;;;;;;4.55;3.60;;;;;;;-0.95;48.07;98378.75;5025341;28;20333;-58
2022/04/04 02:14:06;;;;;;;4.95;3.38;;;;;;;-1.01;45.37;98383.81;5025331;28;20033;-59
2022/04/04 02:16:32;;;;;;;5.32;3.25;;;;;;;-1.01;47.47;98377.84;5026434;28;20029;-59
2022/04/04 02:18:57;;;;;;;6.05;3.75;;;;;;;-1.00;48.08;98384.66;5026325;28;20049;-59
2022/04/04 02:21:23;;;;;;;5.47;3.47;;;;;;;-1.02;46.07;98381.25;5025249;28;20096;-58
2022/04/04 02:23:48;;;;;;;5.18;3.55;;;;;;;-1.03;45.59;98389.72;5026424;28;20026;-58
2022/04/04 02:26:15;;;;;;;6.85;5.00;;;;;;;-0.95;48.43;98383.81;5005460;28;20030;-59
2022/04/04 02:28:40;;;;;;;6.18;4.38;;;;;;;-0.95;48.29;98399.06;5020944;28;20100;-59
2022/04/04 02:31:06;;;;;;;4.93;3.70;;;;;;;-0.88;48.24;98390.63;5020567;28;20036;-59
2022/04/04 02:33:31;;;;;;;5.78;4.07;;;;;;;-0.83;49.44;98399.94;5015642;28;20034;-59
2022/04/04 02:35:57;;;;;;;5.07;3.95;;;;;;;-0.87;47.27;98397.41;5017042;28;20158;-59
2022/04/04 02:38:25;;;;;;;5.57;4.05;;;;;;;-0.82;49.92;98405.03;5016954;28;20034;-60
2022/04/04 02:40:52;;;;;;;5.20;3.67;;;;;;;-1.31;46.77;98334.59;5002250;28;20035;-59
2022/04/04 02:43:18;;;;;;;5.03;3.75;;;;;;;-0.88;47.33;98399.94;4999164;28;20033;-59
2022/04/04 02:45:45;;;;;;;5.40;3.85;;;;;;;-0.93;46.54;98399.91;5016144;28;20033;-58
2022/04/04 02:48:11;;;;;;;8.68;3.55;;;;;;;-0.85;46.47;98405.03;5016794;28;20172;-59
2022/04/04 02:50:37;;;;;;;7.30;3.80;;;;;;;-0.95;45.55;98403.31;5018134;28;20022;-59
2022/04/04 02:53:03;;;;;;;4.07;3.20;;;;;;;-0.88;46.03;98410.09;4982683;28;20239;-59
2022/04/04 02:58:14;;;;;;;5.60;3.60;;;;;;;-1.07;46.65;98420.19;5026445;28;20034;-58
2022/04/04 03:00:40;;;;;;;6.78;3.67;;;;;;;-1.02;48.63;98419.38;5025678;28;20089;-58
2022/04/04 03:03:06;;;;;;;5.35;3.90;;;;;;;-0.95;48.38;98418.56;5024564;28;20034;-59
2022/04/04 03:05:32;;;;;;;7.18;3.97;;;;;;;-1.00;49.40;98420.22;5007856;28;20349;-60
2022/04/04 03:07:58;;;;;;;4.18;3.65;;;;;;;-0.95;45.63;98433.81;5008198;28;20224;-59
2022/04/04 03:10:23;;;;;;;5.32;3.60;;;;;;;-0.98;45.84;98437.16;5007948;28;20026;-57
2022/04/04 03:12:50;;;;;;;5.72;3.20;;;;;;;-1.06;45.10;98438.81;5025435;28;20188;-58
2022/04/04 03:15:21;;;;;;;4.85;3.40;;;;;;;-1.35;49.69;98378.56;5025498;28;20033;-58
2022/04/04 03:17:49;;;;;;;6.77;4.23;;;;;;;-1.28;48.78;98395.53;4991693;28;20341;-58
2022/04/04 03:20:16;;;;;;;5.45;3.90;;;;;;;-0.91;50.53;98450.75;5025169;28;20459;-60
2022/04/04 03:22:44;;;;;;;6.93;3.80;;;;;;;-0.91;49.80;98455.84;5025326;28;20037;-60
2022/04/04 03:25:10;;;;;;;6.00;3.70;;;;;;;-0.95;46.60;98444.81;5025108;28;20018;-59
2022/04/04 03:27:38;;;;;;;6.28;3.70;;;;;;;-1.00;46.63;98445.63;5025007;28;20040;-59
2022/04/04 03:30:17;;;;;;;6.32;4.40;;;;;;;-1.02;46.36;98448.16;5025169;28;20026;-59
2022/04/04 03:32:44;;;;;;;8.25;4.85;;;;;;;-0.91;52.58;98458.38;5025111;28;20032;-59
2022/04/04 03:35:10;;;;;;;7.53;4.35;;;;;;;-0.92;52.24;98449.06;5025130;28;20080;-59
2022/04/04 03:37:36;;;;;;;7.60;4.53;;;;;;;-0.89;50.32;98454.16;5025114;28;20053;-59
2022/04/04 03:40:04;;;;;;;8.20;4.57;;;;;;;-0.83;50.49;98454.16;5007459;28;20064;-59
2022/04/04 03:42:30;;;;;;;7.32;4.55;;;;;;;-0.87;49.32;98454.97;5024940;28;20018;-58
2022/04/04 03:44:56;;;;;;;7.13;4.30;;;;;;;-0.78;49.55;98451.66;5024907;28;20036;-58
2022/04/04 03:47:22;;;;;;;9.07;5.35;;;;;;;-0.69;49.90;98459.31;5024831;28;20018;-59
2022/04/04 03:49:48;;;;;;;9.20;5.22;;;;;;;-0.82;47.18;98444.88;5024531;28;20022;-58
2022/04/04 03:52:14;;;;;;;8.02;4.38;;;;;;;-0.67;49.29;98460.19;5024626;28;20419;-58
2022/04/04 03:54:40;;;;;;;8.30;4.40;;;;;;;-0.66;48.65;98464.41;5024474;28;20045;-59
2022/04/04 03:57:06;;;;;;;14.20;7.13;;;;;;;-0.52;49.28;98464.44;5024356;28;20053;-58
2022/04/04 03:59:31;;;;;;;10.32;5.22;;;;;;;-0.52;49.47;98457.66;5024311;28;20022;-60
2022/04/04 04:01:57;;;;;;;10.80;5.68;;;;;;;-0.37;51.65;98468.72;5024037;28;20025;-59
2022/04/04 04:04:22;;;;;;;9.95;5.18;;;;;;;-0.39;49.74;98466.16;5024183;28;20065;-59
2022/04/04 04:06:49;;;;;;;8.65;4.93;;;;;;;-0.28;50.56;98468.75;5024478;28;20044;-58
2022/04/04 04:09:14;;;;;;;12.48;4.60;;;;;;;-0.22;48.47;98468.75;5007000;28;20022;-58
2022/04/04 04:11:40;;;;;;;10.07;6.32;;;;;;;-0.16;47.81;98474.72;5024091;28;20341;-59
2022/04/04 04:14:06;;;;;;;8.43;5.40;;;;;;;-0.16;48.10;98477.25;5024034;28;20075;-59
2022/04/04 04:16:32;;;;;;;5.97;4.40;;;;;;;-0.01;49.34;98472.19;5024199;28;20029;-59
2022/04/04 04:18:57;;;;;;;6.07;3.85;;;;;;;0.03;49.83;98473.91;5024143;28;20282;-59
2022/04/04 04:21:23;;;;;;;6.55;4.00;;;;;;;0.16;49.04;98474.78;5024071;28;20037;-59
2022/04/04 04:23:50;;;;;;;6.55;4.82;;;;;;;0.15;50.89;98479.00;5024046;28;20025;-59
2022/04/04 04:26:17;;;;;;;7.38;4.72;;;;;;;0.23;49.56;98476.47;5031592;28;20336;-60
2022/04/04 04:28:47;;;;;;;6.00;4.30;;;;;;;0.34;50.11;98479.00;5028715;28;20276;-58
2022/04/04 04:31:16;;;;;;;6.15;4.30;;;;;;;0.22;45.09;98472.22;5023999;28;20022;-59
2022/04/04 04:33:42;;;;;;;6.70;4.50;;;;;;;0.30;47.64;98467.13;5023998;28;20073;-58
2022/04/04 04:36:08;;;;;;;6.75;4.10;;;;;;;0.54;48.83;98478.16;5024005;28;20311;-60
2022/04/04 04:38:34;;;;;;;5.10;3.83;;;;;;;0.60;47.93;98480.69;5023943;28;20049;-60
2022/04/04 04:41:00;;;;;;;6.15;3.60;;;;;;;0.68;48.32;98472.22;5023777;28;20029;-55
2022/04/04 04:43:27;;;;;;;5.60;4.05;;;;;;;0.67;44.85;98473.06;5023578;28;20061;-56
2022/04/04 04:45:53;;;;;;;6.97;3.90;;;;;;;0.71;46.63;98478.97;5023616;28;20021;-56
2022/04/04 04:48:19;;;;;;;7.38;3.78;;;;;;;0.72;44.89;98484.94;5023671;28;20156;-56
2022/04/04 04:50:45;;;;;;;5.18;3.70;;;;;;;0.68;44.71;98478.97;5023780;28;20025;-57
2022/04/04 04:53:10;;;;;;;5.60;3.80;;;;;;;0.67;45.17;98480.69;5023623;28;20025;-58
2022/04/04 04:55:36;;;;;;;6.72;3.75;;;;;;;0.74;46.13;98479.00;5023668;28;20022;-58
2022/04/04 04:58:02;;;;;;;4.20;3.33;;;;;;;0.83;46.43;98484.06;5005648;28;20032;-57
2022/04/04 05:00:29;;;;;;;5.88;3.90;;;;;;;0.84;46.38;98488.31;5006043;28;20022;-59
2022/04/04 05:05:41;;;;;;;6.35;4.38;;;;;;;0.90;45.68;98486.59;5005696;28;20186;-59
2022/04/04 05:08:07;;;;;;;6.95;4.28;;;;;;;0.97;44.91;98485.72;5023183;28;20022;-58
2022/04/04 05:10:33;;;;;;;6.93;4.65;;;;;;;1.02;44.90;98492.50;5000821;28;20053;-58
2022/04/04 05:12:59;;;;;;;5.88;4.10;;;;;;;1.13;45.20;98484.84;5007052;28;20038;-59
2022/04/04 05:15:25;;;;;;;6.97;4.47;;;;;;;1.22;45.21;98493.31;5005513;28;20422;-58
2022/04/04 05:17:52;;;;;;;6.80;4.40;;;;;;;1.23;44.85;98495.00;5022946;28;20026;-58
2022/04/04 05:20:21;;;;;;;7.35;5.03;;;;;;;1.28;42.79;98480.53;5023209;28;20084;-57
2022/04/04 05:22:47;;;;;;;8.20;4.40;;;;;;;1.28;43.45;98491.56;5022457;28;20042;-58
2022/04/04 05:25:14;;;;;;;6.55;4.10;;;;;;;1.27;40.99;98492.44;5022608;28;20033;-58
2022/04/04 05:27:41;;;;;;;6.20;4.18;;;;;;;1.31;43.11;98513.69;5021297;28;20030;-59
2022/04/04 05:30:08;;;;;;;5.85;4.30;;;;;;;1.35;43.54;98495.84;5022802;28;20018;-58
2022/04/04 05:32:34;;;;;;;9.15;4.70;;;;;;;1.30;42.50;98481.41;5022055;28;20370;-59
2022/04/04 05:35:06;;;;;;;10.27;4.65;;;;;;;1.33;43.87;98489.88;5021657;28;20026;-58
2022/04/04 05:37:32;;;;;;;9.52;6.70;;;;;;;1.41;43.30;98491.53;5003956;28;20089;-59
2022/04/04 05:39:58;;;;;;;7.18;4.20;;;;;;;1.34;42.78;98490.72;5021118;28;20045;-58
2022/04/04 05:42:24;;;;;;;8.65;4.85;;;;;;;1.49;44.40;98490.66;5021658;28;20021;-59
2022/04/04 05:44:50;;;;;;;6.30;4.68;;;;;;;1.48;42.75;98470.25;5021860;28;20339;-59
2022/04/04 05:47:19;;;;;;;6.35;4.80;;;;;;;1.81;43.12;98487.09;5004273;28;20138;-59
2022/04/04 05:49:45;;;;;;;7.28;4.63;;;;;;;2.06;41.50;98489.50;5021541;28;20088;-58
2022/04/04 05:52:11;;;;;;;7.15;4.60;;;;;;;2.31;41.41;98481.66;5021848;28;20030;-58
2022/04/04 05:54:54;;;;;;;8.98;4.55;;;;;;;2.72;41.07;98485.56;5004936;28;20033;-59
2022/04/04 05:57:31;;;;;;;7.20;4.78;;;;;;;3.23;41.41;98493.56;5022411;28;20209;-60
2022/04/04 05:59:56;;;;;;;7.45;4.75;;;;;;;3.51;38.75;98482.19;5022435;28;20041;-59
2022/04/04 06:02:23;;;;;;;8.80;4.85;;;;;;;3.75;39.54;98478.47;5022139;28;20026;-58
2022/04/04 06:04:52;;;;;;;5.97;4.07;;;;;;;3.86;37.01;98478.28;5022588;28;20079;-60
2022/04/04 06:07:18;;;;;;;10.95;4.97;;;;;;;3.91;37.85;98474.81;5022023;28;20040;-59
2022/04/04 06:09:44;;;;;;;7.18;4.43;;;;;;;4.20;37.67;98481.19;5011463;28;20046;-58
2022/04/04 06:12:10;;;;;;;8.05;4.07;;;;;;;4.41;38.26;98486.88;5013737;28;20097;-58
2022/04/04 06:14:36;;;;;;;10.35;4.93;;;;;;;4.36;38.74;98483.53;5019436;28;20040;-58
2022/04/04 06:17:06;;;;;;;5.15;3.78;;;;;;;4.38;38.15;98469.00;5022202;28;20041;-59
2022/04/04 06:19:34;;;;;;;5.38;3.63;;;;;;;4.58;37.82;98482.31;5004777;28;20050;-58
2022/04/04 06:22:00;;;;;;;7.25;4.30;;;;;;;4.63;39.31;98479.66;5022121;28;20314;-58
2022/04/04 06:24:25;;;;;;;5.75;4.15;;;;;;;4.56;35.97;98484.06;5022163;28;20040;-59
2022/04/04 06:26:51;;;;;;;5.13;4.05;;;;;;;4.88;37.59;98487.78;5022222;28;20226;-59
2022/04/04 06:29:16;;;;;;;8.40;4.30;;;;;;;5.08;36.06;98484.03;5021964;28;20026;-58
2022/04/04 06:31:44;;;;;;;9.02;5.15;;;;;;;5.18;36.56;98481.22;5022136;28;20330;-58
2022/04/04 06:34:10;;;;;;;9.07;5.10;;;;;;;5.31;37.42;98483.56;5022407;28;20037;-59
2022/04/04 06:36:38;;;;;;;10.15;5.10;;;;;;;5.57;35.34;98489.91;5022276;28;20041;-59
2022/04/04 06:39:05;;;;;;;9.05;5.25;;;;;;;5.70;37.21;98486.19;5023897;28;20022;-58
2022/04/04 06:41:31;;;;;;;10.77;4.88;;;;;;;5.46;34.66;98482.44;5025492;28;20318;-58
2022/04/04 06:43:58;;;;;;;9.27;5.10;;;;;;;6.02;37.16;98490.66;5025649;28;20040;-58
2022/04/04 06:46:24;;;;;;;10.45;5.75;;;;;;;6.26;35.86;98482.44;5025647;28;20029;-59
2022/04/04 06:48:51;;;;;;;6.72;4.72;;;;;;;6.44;34.09;98494.00;5025608;28;20041;-58
2022/04/04 06:51:17;;;;;;;9.90;4.70;;;;;;;6.94;34.09;98493.63;5025403;28;20222;-58
2022/04/04 06:53:43;;;;;;;19.10;10.63;;;;;;;7.39;32.68;98483.81;5007906;28;20160;-58
2022/04/04 06:56:08;;;;;;;7.63;5.13;;;;;;;7.59;32.94;98484.97;5024988;28;20199;-58
2022/04/04 06:58:34;;;;;;;7.85;3.97;;;;;;;7.36;31.62;98486.47;5025284;28;20029;-59
2022/04/04 07:01:01;;;;;;;9.98;3.78;;;;;;;7.51;31.42;98480.06;5025161;28;20049;-58
2022/04/04 07:03:27;;;;;;;5.82;3.50;;;;;;;7.71;31.90;98481.19;5024856;28;20034;-58
2022/04/04 07:05:52;;;;;;;4.47;3.58;;;;;;;7.84;31.49;98487.69;5025106;28;20025;-58
2022/04/04 07:08:18;;;;;;;4.35;3.15;;;;;;;7.89;32.18;98487.53;5024943;28;20056;-58
2022/04/04 07:10:43;;;;;;;4.18;3.38;;;;;;;7.99;32.23;98488.94;5024277;28;20018;-58
2022/04/04 07:13:09;;;;;;;7.03;3.38;;;;;;;8.03;30.97;98482.81;5017647;28;20326;-58
2022/04/04 07:15:35;;;;;;;4.28;3.10;;;;;;;8.36;32.88;98479.22;5024985;28;20032;-59
2022/04/04 07:18:02;;;;;;;4.55;3.55;;;;;;;8.50;31.22;98483.97;5007000;28;20049;-59
2022/04/04 07:20:27;;;;;;;7.60;3.67;;;;;;;8.69;31.02;98484.22;5024309;28;20050;-59
2022/04/04 07:22:53;;;;;;;6.70;3.88;;;;;;;8.83;30.32;98481.16;5024227;28;20036;-58
2022/04/04 07:25:21;;;;;;;6.45;4.32;;;;;;;8.74;31.68;98484.91;5024295;28;20033;-59
2022/04/04 07:27:48;;;;;;;6.00;4.38;;;;;;;9.04;32.21;98482.19;5024399;28;20038;-58
2022/04/04 07:30:18;;;;;;;6.10;4.20;;;;;;;8.89;29.41;98448.25;5024087;28;20188;-58
2022/04/04 07:32:44;;;;;;;8.23;4.55;;;;;;;9.22;32.00;98476.38;5024468;28;20034;-58
2022/04/04 07:35:11;;;;;;;6.53;4.13;;;;;;;9.48;30.93;98483.16;5024425;28;20444;-58
2022/04/04 07:37:41;;;;;;;12.20;5.25;;;;;;;9.17;30.82;98467.94;5024227;28;20060;-57
2022/04/04 07:40:10;;;;;;;10.10;4.85;;;;;;;9.02;29.84;98469.31;5006589;28;20022;-58
2022/04/04 07:42:38;;;;;;;6.88;4.20;;;;;;;8.82;32.33;98462.22;5024250;28;20040;-58
2022/04/04 07:45:06;;;;;;;6.93;4.40;;;;;;;9.27;30.04;98473.63;5023991;28;20061;-58
2022/04/04 07:47:32;;;;;;;6.32;3.70;;;;;;;8.95;29.55;98467.81;5023963;28;20034;-59
2022/04/04 07:49:58;;;;;;;8.13;4.18;;;;;;;8.93;29.57;98472.22;5006013;28;20025;-58
2022/04/04 07:52:23;;;;;;;9.73;3.80;;;;;;;9.14;29.03;98465.47;5006298;28;20025;-59
2022/04/04 07:54:49;;;;;;;5.13;3.60;;;;;;;9.19;29.48;98470.44;5023996;28;20026;-58
2022/04/04 07:57:15;;;;;;;6.70;4.65;;;;;;;9.23;32.50;98472.03;5023714;28;20030;-58
2022/04/04 07:59:41;;;;;;;3.10;2.40;;;;;;;8.51;29.46;98457.25;5023683;28;20029;-58
2022/04/04 08:02:07;;;;;;;4.55;2.90;;;;;;;8.79;29.66;98472.66;5023625;28;20040;-58
2022/04/04 08:04:32;;;;;;;3.55;2.63;;;;;;;9.22;30.71;98466.03;5006305;28;20029;-59
2022/04/04 08:06:58;;;;;;;5.15;2.28;;;;;;;9.37;31.69;98462.03;5023615;28;20030;-58
2022/04/04 08:09:24;;;;;;;5.30;3.38;;;;;;;9.31;30.12;98464.84;5023862;28;20061;-58
2022/04/04 08:11:50;;;;;;;6.30;3.30;;;;;;;8.90;30.17;98469.75;5023820;28;20068;-59
2022/04/04 08:14:16;;;;;;;5.45;3.08;;;;;;;8.70;30.91;98462.69;5024094;28;20029;-59
2022/04/04 08:16:41;;;;;;;55.80;30.38;;;;;;;8.27;28.69;98464.88;5023938;28;20207;-58
2022/04/04 08:19:07;;;;;;;7.28;4.65;;;;;;;8.37;28.80;98463.69;5023796;28;20038;-58
2022/04/04 08:21:34;;;;;;;4.80;3.58;;;;;;;8.11;31.79;98461.97;5023882;28;20037;-58
2022/04/04 08:23:59;;;;;;;5.30;2.55;;;;;;;8.51;29.87;98465.00;5023522;28;20053;-58
2022/04/04 08:26:25;;;;;;;3.70;2.70;;;;;;;8.43;30.66;98465.22;5005815;28;20025;-59
2022/04/04 08:28:51;;;;;;;3.38;2.40;;;;;;;8.39;31.17;98461.06;5005941;28;20034;-58
2022/04/04 08:31:16;;;;;;;4.13;2.40;;;;;;;8.16;29.90;98460.06;5005898;28;20088;-58
2022/04/04 08:33:42;;;;;;;26.17;17.42;;;;;;;8.46;31.43;98460.00;5023432;28;20033;-58
2022/04/04 08:36:07;;;;;;;5.75;3.33;;;;;;;8.53;30.25;98455.50;5023609;28;20243;-58
2022/04/04 08:38:37;;;;;;;4.25;2.58;;;;;;;8.23;29.99;98453.81;5023428;28;20029;-59
2022/04/04 08:41:05;;;;;;;5.50;2.15;;;;;;;8.13;29.92;98453.25;5023885;28;20053;-57
2022/04/04 08:43:36;;;;;;;2.72;2.22;;;;;;;8.37;29.22;98450.78;5022500;28;20017;-59
2022/04/04 08:46:03;;;;;;;2.83;1.95;;;;;;;8.48;33.71;98463.38;5005134;28;20032;-58
2022/04/04 08:48:31;;;;;;;5.85;3.40;;;;;;;8.69;34.03;98461.81;5023025;28;20306;-57
2022/04/04 08:50:57;;;;;;;4.32;2.38;;;;;;;8.63;34.07;98455.13;5023111;28;20052;-57
2022/04/04 08:53:23;;;;;;;3.30;2.53;;;;;;;8.79;33.84;98452.03;5023201;28;20045;-58
2022/04/04 08:55:48;;;;;;;4.65;2.95;;;;;;;8.44;31.67;98452.31;5013346;28;20030;-58
2022/04/04 08:58:15;;;;;;;3.63;2.75;;;;;;;8.60;33.08;98460.38;5019749;28;20078;-57
2022/04/04 09:00:41;;;;;;;3.72;2.17;;;;;;;8.66;32.39;98456.75;5004955;28;20045;-58
2022/04/04 09:03:09;;;;;;;5.10;2.70;;;;;;;8.86;34.63;98448.31;5022157;28;20224;-58
2022/04/04 09:05:50;;;;;;;3.45;2.47;;;;;;;8.68;31.09;98405.94;5022869;28;20121;-58
2022/04/04 09:08:16;;;;;;;3.80;2.15;;;;;;;8.92;30.19;98449.84;5022339;28;20124;-58
2022/04/04 09:10:44;;;;;;;6.15;2.78;;;;;;;8.69;32.98;98454.06;5022244;28;20068;-57
2022/04/04 09:13:12;;;;;;;2.25;2.03;;;;;;;8.60;29.17;98451.81;5021874;28;20097;-58
2022/04/04 09:15:54;;;;;;;3.15;2.28;;;;;;;8.58;29.85;98438.09;5022314;28;20037;-57
2022/04/04 09:18:41;;;;;;;;;;;;;;;8.76;33.63;98444.38;5023212;28;20030;-61
2022/04/04 09:21:11;;;;;;;5.07;2.42;;;;;;;8.78;32.33;98447.78;5022751;28;19939;-59
2022/04/04 09:23:46;;;;;;;4.10;2.25;;;;;;;7.91;31.11;98445.38;4988346;28;20215;-59
2022/04/04 09:26:33;;;;;;;4.63;2.78;;;;;;;8.24;35.74;98457.25;5022546;28;20040;-58
2022/04/04 09:29:19;;;;;;;2.90;2.50;;;;;;;7.89;32.14;98452.28;5022274;28;20342;-57
2022/04/04 09:31:59;;;;;;;5.45;3.05;;;;;;;7.82;34.20;98444.78;5009411;28;20022;-61
2022/04/04 09:34:26;;;;;;;5.28;2.90;;;;;;;7.99;33.96;98447.69;5022612;28;20022;-58
2022/04/04 09:36:51;;;;;;;4.13;2.80;;;;;;;7.86;34.51;98456.72;5022905;28;20029;-58
2022/04/04 09:39:18;;;;;;;2.63;2.30;;;;;;;7.78;30.39;98431.16;5022806;28;20088;-58
2022/04/04 09:41:43;;;;;;;6.03;2.38;;;;;;;7.58;33.91;98445.50;5022720;28;20040;-58
2022/04/04 09:44:11;;;;;;;5.75;2.80;;;;;;;7.67;35.64;98454.69;5017708;28;20081;-59
2022/04/04 09:46:45;;;;;;;4.00;2.60;;;;;;;7.41;34.86;98438.25;5015651;28;20033;-59
2022/04/04 09:49:10;;;;;;;7.28;2.65;;;;;;;7.39;32.16;98452.06;5015728;28;20088;-59
2022/04/04 09:51:37;;;;;;;4.90;2.50;;;;;;;7.24;32.83;98458.50;5028658;28;20257;-60
2022/04/04 09:54:05;;;;;;;3.47;2.38;;;;;;;7.36;34.39;98465.03;5025453;28;20104;-59
2022/04/04 09:56:30;;;;;;;2.47;2.25;;;;;;;7.04;32.63;98454.72;5022494;28;20238;-59
2022/04/04 09:59:02;;;;;;;4.18;2.53;;;;;;;7.15;34.42;98451.84;5022403;28;20068;-58
2022/04/04 10:01:31;;;;;;;4.63;2.45;;;;;;;6.84;34.65;98400.38;5022650;28;20056;-59
2022/04/04 10:03:57;;;;;;;4.07;2.53;;;;;;;7.19;35.43;98458.59;5038472;28;20029;-59
2022/04/04 10:06:28;;;;;;;3.05;2.40;;;;;;;6.78;32.89;98400.53;5023185;28;20029;-58
2022/04/04 10:08:57;;;;;;;4.28;3.00;;;;;;;6.75;34.11;98391.16;5023071;28;20033;-59
2022/04/04 10:11:24;;;;;;;4.07;2.35;;;;;;;6.95;33.17;98444.66;5005239;28;20045;-59
2022/04/04 10:13:52;;;;;;;2.60;2.35;;;;;;;7.24;34.13;98453.34;5025883;28;20026;-58
2022/04/04 10:16:18;;;;;;;2.25;2.00;;;;;;;7.29;32.63;98454.03;5026475;28;20056;-58
2022/04/04 10:18:44;;;;;;;6.97;2.67;;;;;;;7.26;34.80;98438.69;5026151;28;20049;-60
2022/04/04 10:21:11;;;;;;;4.03;2.35;;;;;;;7.18;36.47;98445.78;5026561;28;20026;-59
2022/04/04 10:23:40;;;;;;;3.67;2.10;;;;;;;7.31;34.21;98465.16;5025984;28;20322;-60
2022/04/04 10:26:10;;;;;;;3.38;2.45;;;;;;;7.16;33.16;98440.69;5025947;28;20136;-59
2022/04/04 10:28:38;;;;;;;5.70;2.65;;;;;;;7.20;34.64;98465.44;5025600;28;20049;-59
2022/04/04 10:31:19;;;;;;;3.42;2.22;;;;;;;6.79;33.60;98448.56;5025953;28;20026;-58
2022/04/04 10:33:47;;;;;;;4.20;2.38;;;;;;;7.25;34.49;98450.72;5026395;28;20028;-58
2022/04/04 10:36:20;;;;;;;2.40;1.67;;;;;;;7.17;34.49;98441.50;5026157;28;20018;-58
2022/04/04 10:38:50;;;;;;;3.20;2.00;;;;;;;7.23;34.12;98424.16;5025715;28;20053;-59
2022/04/04 10:41:30;;;;;;;4.03;2.10;;;;;;;7.39;34.40;98439.19;5008397;28;20088;-59
2022/04/04 10:43:56;;;;;;;6.53;2.47;;;;;;;6.89;32.68;98442.28;5005524;28;20037;-59
2022/04/04 10:46:24;;;;;;;2.53;2.10;;;;;;;7.22;34.83;98440.50;5022607;28;20037;-59
2022/04/04 10:48:52;;;;;;;4.05;2.30;;;;;;;7.16;35.56;98448.41;5018593;28;20222;-58
2022/04/04 10:51:32;;;;;;;3.60;2.55;;;;;;;6.85;33.36;98438.09;5025397;28;20050;-59
2022/04/04 10:54:01;;;;;;;3.20;2.05;;;;;;;7.13;33.89;98450.22;5025485;28;20088;-59
2022/04/04 10:56:28;;;;;;;3.25;1.90;;;;;;;6.91;34.20;98437.91;5025782;28;20026;-59
2022/04/04 10:59:20;;;;;;;3.22;2.20;;;;;;;7.20;33.92;98444.84;5024977;28;20176;-58
2022/04/04 11:01:48;;;;;;;2.22;2.00;;;;;;;6.89;36.05;98393.38;5025378;28;20385;-59
2022/04/04 11:04:36;;;;;;;2.15;1.92;;;;;;;7.32;34.78;98443.66;5025169;28;20046;-59
2022/04/04 11:10:05;;;;;;;2.67;1.80;;;;;;;7.15;35.91;98438.97;5007739;28;20086;-59
2022/04/04 11:12:56;;;;;;;2.75;2.40;;;;;;;7.45;34.87;98433.00;5017431;28;20032;-59
2022/04/04 11:15:44;;;;;;;2.20;1.98;;;;;;;7.34;35.06;98431.59;5025109;28;20030;-58
2022/04/04 11:18:12;;;;;;;3.28;2.28;;;;;;;7.08;35.19;98399.72;5007726;28;20025;-57
2022/04/04 11:20:46;;;;;;;1.90;1.80;;;;;;;7.29;34.44;98394.00;5025736;28;20346;-57
2022/04/04 11:23:14;;;;;;;1.80;1.70;;;;;;;7.54;33.20;98438.75;5024938;28;20025;-57
2022/04/04 11:25:53;;;;;;;2.95;2.00;;;;;;;7.50;33.04;98431.16;5024151;28;20307;-57
2022/04/04 11:28:25;;;;;;;4.55;1.77;;;;;;;7.26;32.00;98369.16;5024838;28;20072;-57
2022/04/04 11:31:02;;;;;;;3.05;1.80;;;;;;;7.09;32.11;98445.13;5025095;28;20096;-58
2022/04/04 11:33:28;;;;;;;5.63;2.25;;;;;;;6.93;33.21;98446.47;5024850;28;20030;-58
2022/04/04 11:35:54;;;;;;;11.30;5.55;;;;;;;6.99;32.63;98440.31;5025358;28;20042;-58
2022/04/04 11:38:20;;;;;;;4.40;3.05;;;;;;;6.93;33.59;98425.88;5024125;28;20285;-58
2022/04/04 11:40:57;;;;;;;4.13;2.17;;;;;;;6.66;33.72;98394.84;5023916;28;20210;-59
2022/04/04 11:43:24;;;;;;;2.28;1.83;;;;;;;7.14;32.82;98441.59;5024784;28;20038;-59
2022/04/04 11:45:52;;;;;;;2.38;1.58;;;;;;;6.90;32.30;98439.66;5005139;28;20042;-59
2022/04/04 11:48:27;;;;;;;5.18;2.03;;;;;;;6.89;34.64;98430.25;5022987;28;20022;-59
2022/04/04 11:50:58;;;;;;;2.92;1.80;;;;;;;7.07;33.24;98428.91;5006884;28;20265;-59